sensor_id;sensor_type;location;lat;lon;timestamp;pressure;altitude;pressure_sealevel;temperature;humidity
58761;BME280;44529;47.464;19.014;2023-05-20T00:01:24;100660.87;;;16.48;98.32
58761;BME280;44529;47.464;19.014;2023-05-20T00:04:27;100652.03;;;16.51;98.65
58761;BME280;44529;47.464;19.014;2023-05-20T00:07:30;100649.06;;;16.57;98.62
58761;BME280;44529;47.464;19.014;2023-05-20T00:10:32;100650.75;;;16.61;98.07
58761;BME280;44529;47.464;19.014;2023-05-20T00:13:35;100653.97;;;16.63;98.02
58761;BME280;44529;47.464;19.014;2023-05-20T00:16:37;100657.25;;;16.69;97.81
58761;BME280;44529;47.464;19.014;2023-05-20T00:19:39;100654.41;;;16.65;98.86
58761;BME280;44529;47.464;19.014;2023-05-20T00:22:42;100657.47;;;16.64;98.42
58761;BME280;44529;47.464;19.014;2023-05-20T00:25:44;100652.69;;;16.61;99.25
58761;BME280;44529;47.464;19.014;2023-05-20T00:28:47;100652.69;;;16.61;99.14
58761;BME280;44529;47.464;19.014;2023-05-20T00:31:49;100644.28;;;16.53;100.00
58761;BME280;44529;47.464;19.014;2023-05-20T00:34:59;100639.03;;;16.48;100.00
58761;BME280;44529;47.464;19.014;2023-05-20T00:38:01;100646.34;;;16.57;99.61
58761;BME280;44529;47.464;19.014;2023-05-20T00:41:04;100645.41;;;16.52;100.00
58761;BME280;44529;47.464;19.014;2023-05-20T00:44:06;100645.31;;;16.49;100.00
58761;BME280;44529;47.464;19.014;2023-05-20T00:47:09;100646.00;;;16.46;100.00
58761;BME280;44529;47.464;19.014;2023-05-20T00:50:11;100639.97;;;16.40;100.00
58761;BME280;44529;47.464;19.014;2023-05-20T00:53:15;100645.09;;;16.30;100.00
58761;BME280;44529;47.464;19.014;2023-05-20T00:56:19;100634.75;;;16.23;100.00
58761;BME280;44529;47.464;19.014;2023-05-20T00:59:24;100636.09;;;16.17;100.00
58761;BME280;44529;47.464;19.014;2023-05-20T01:02:27;100638.56;;;16.10;100.00
58761;BME280;44529;47.464;19.014;2023-05-20T01:05:30;100641.53;;;16.05;100.00
58761;BME280;44529;47.464;19.014;2023-05-20T01:08:32;100645.25;;;16.00;100.00
58761;BME280;44529;47.464;19.014;2023-05-20T01:11:42;100641.50;;;15.92;100.00
58761;BME280;44529;47.464;19.014;2023-05-20T01:14:53;100644.78;;;15.86;100.00
58761;BME280;44529;47.464;19.014;2023-05-20T01:18:00;100650.09;;;15.82;100.00
58761;BME280;44529;47.464;19.014;2023-05-20T01:21:04;100653.72;;;15.74;100.00
58761;BME280;44529;47.464;19.014;2023-05-20T01:24:09;100655.06;;;15.68;100.00
58761;BME280;44529;47.464;19.014;2023-05-20T01:27:12;100659.56;;;15.64;100.00
58761;BME280;44529;47.464;19.014;2023-05-20T01:30:16;100657.03;;;15.59;100.00
58761;BME280;44529;47.464;19.014;2023-05-20T01:33:19;100664.09;;;15.60;100.00
58761;BME280;44529;47.464;19.014;2023-05-20T01:36:23;100665.44;;;15.54;100.00
58761;BME280;44529;47.464;19.014;2023-05-20T01:39:29;100667.66;;;15.52;100.00
58761;BME280;44529;47.464;19.014;2023-05-20T01:42:32;100672.88;;;15.44;100.00
58761;BME280;44529;47.464;19.014;2023-05-20T01:45:36;100665.56;;;15.36;100.00
58761;BME280;44529;47.464;19.014;2023-05-20T01:48:39;100678.06;;;15.37;100.00
58761;BME280;44529;47.464;19.014;2023-05-20T01:51:42;100672.81;;;15.32;100.00
58761;BME280;44529;47.464;19.014;2023-05-20T01:54:45;100680.50;;;15.30;100.00
58761;BME280;44529;47.464;19.014;2023-05-20T01:57:52;100678.94;;;15.29;100.00
58761;BME280;44529;47.464;19.014;2023-05-20T02:00:54;100670.31;;;15.27;100.00
58761;BME280;44529;47.464;19.014;2023-05-20T02:03:57;100671.41;;;15.26;100.00
58761;BME280;44529;47.464;19.014;2023-05-20T02:06:59;100668.22;;;15.24;100.00
58761;BME280;44529;47.464;19.014;2023-05-20T02:10:02;100668.69;;;15.26;100.00
58761;BME280;44529;47.464;19.014;2023-05-20T02:13:05;100670.50;;;15.22;100.00
58761;BME280;44529;47.464;19.014;2023-05-20T02:16:08;100668.22;;;15.24;100.00
58761;BME280;44529;47.464;19.014;2023-05-20T02:19:10;100664.69;;;15.24;100.00
58761;BME280;44529;47.464;19.014;2023-05-20T02:22:14;100663.44;;;15.21;100.00
58761;BME280;44529;47.464;19.014;2023-05-20T02:25:17;100664.25;;;15.22;100.00
58761;BME280;44529;47.464;19.014;2023-05-20T02:28:20;100661.38;;;15.18;100.00
58761;BME280;44529;47.464;19.014;2023-05-20T02:31:22;100667.63;;;15.18;100.00
58761;BME280;44529;47.464;19.014;2023-05-20T02:34:26;100667.97;;;15.17;100.00
58761;BME280;44529;47.464;19.014;2023-05-20T02:37:29;100671.94;;;15.20;100.00
58761;BME280;44529;47.464;19.014;2023-05-20T02:40:31;100667.00;;;15.13;100.00
58761;BME280;44529;47.464;19.014;2023-05-20T02:43:34;100674.72;;;15.11;100.00
58761;BME280;44529;47.464;19.014;2023-05-20T02:46:37;100675.72;;;15.06;100.00
58761;BME280;44529;47.464;19.014;2023-05-20T02:49:40;100670.59;;;15.05;100.00
58761;BME280;44529;47.464;19.014;2023-05-20T02:52:42;100667.59;;;14.98;100.00
58761;BME280;44529;47.464;19.014;2023-05-20T02:55:46;100664.09;;;14.97;100.00
58761;BME280;44529;47.464;19.014;2023-05-20T02:58:49;100652.06;;;14.98;100.00
58761;BME280;44529;47.464;19.014;2023-05-20T03:01:52;100649.69;;;14.97;100.00
58761;BME280;44529;47.464;19.014;2023-05-20T03:04:55;100656.53;;;15.03;100.00
58761;BME280;44529;47.464;19.014;2023-05-20T03:07:57;100668.91;;;15.21;100.00
58761;BME280;44529;47.464;19.014;2023-05-20T03:11:01;100662.97;;;15.19;100.00
58761;BME280;44529;47.464;19.014;2023-05-20T03:14:05;100672.09;;;15.23;100.00
58761;BME280;44529;47.464;19.014;2023-05-20T03:17:08;100671.41;;;15.26;100.00
58761;BME280;44529;47.464;19.014;2023-05-20T03:20:11;100676.06;;;15.26;100.00
58761;BME280;44529;47.464;19.014;2023-05-20T03:23:14;100679.56;;;15.26;100.00
58761;BME280;44529;47.464;19.014;2023-05-20T03:26:17;100676.72;;;15.23;100.00
58761;BME280;44529;47.464;19.014;2023-05-20T03:29:19;100693.19;;;15.26;100.00
58761;BME280;44529;47.464;19.014;2023-05-20T03:32:22;100678.47;;;15.27;100.00
58761;BME280;44529;47.464;19.014;2023-05-20T03:35:25;100686.75;;;15.31;100.00
58761;BME280;44529;47.464;19.014;2023-05-20T03:38:29;100682.09;;;15.31;100.00
58761;BME280;44529;47.464;19.014;2023-05-20T03:41:31;100685.63;;;15.32;100.00
58761;BME280;44529;47.464;19.014;2023-05-20T03:44:34;100687.09;;;15.29;100.00
58761;BME280;44529;47.464;19.014;2023-05-20T03:47:37;100694.87;;;15.39;100.00
58761;BME280;44529;47.464;19.014;2023-05-20T03:50:40;100697.22;;;15.29;100.00
58761;BME280;44529;47.464;19.014;2023-05-20T03:53:42;100700.53;;;15.34;100.00
58761;BME280;44529;47.464;19.014;2023-05-20T03:56:45;100700.72;;;15.29;100.00
58761;BME280;44529;47.464;19.014;2023-05-20T03:59:48;100708.81;;;15.38;100.00
58761;BME280;44529;47.464;19.014;2023-05-20T04:02:50;100710.56;;;15.42;100.00
58761;BME280;44529;47.464;19.014;2023-05-20T04:05:53;100707.03;;;15.42;100.00
58761;BME280;44529;47.464;19.014;2023-05-20T04:08:55;100716.19;;;15.37;100.00
58761;BME280;44529;47.464;19.014;2023-05-20T04:11:58;100715.56;;;15.40;100.00
58761;BME280;44529;47.464;19.014;2023-05-20T04:15:01;100716.16;;;15.46;100.00
58761;BME280;44529;47.464;19.014;2023-05-20T04:18:04;100713.44;;;15.46;100.00
58761;BME280;44529;47.464;19.014;2023-05-20T04:21:07;100718.75;;;15.42;100.00
58761;BME280;44529;47.464;19.014;2023-05-20T04:24:10;100720.78;;;15.45;100.00
58761;BME280;44529;47.464;19.014;2023-05-20T04:27:12;100723.31;;;15.51;100.00
58761;BME280;44529;47.464;19.014;2023-05-20T04:30:15;100721.53;;;15.55;100.00
58761;BME280;44529;47.464;19.014;2023-05-20T04:33:23;100718.91;;;15.67;100.00
58761;BME280;44529;47.464;19.014;2023-05-20T04:36:26;100720.94;;;15.70;100.00
58761;BME280;44529;47.464;19.014;2023-05-20T04:39:30;100720.84;;;15.66;100.00
58761;BME280;44529;47.464;19.014;2023-05-20T04:42:32;100729.81;;;15.67;100.00
58761;BME280;44529;47.464;19.014;2023-05-20T04:45:34;100732.34;;;15.72;100.00
58761;BME280;44529;47.464;19.014;2023-05-20T04:48:38;100740.97;;;15.74;100.00
58761;BME280;44529;47.464;19.014;2023-05-20T04:51:40;100741.22;;;15.81;99.51
58761;BME280;44529;47.464;19.014;2023-05-20T04:54:43;100737.50;;;15.86;98.14
58761;BME280;44529;47.464;19.014;2023-05-20T04:57:45;100734.56;;;15.91;98.34
58761;BME280;44529;47.464;19.014;2023-05-20T05:00:47;100730.75;;;16.04;96.48
58761;BME280;44529;47.464;19.014;2023-05-20T05:03:50;100726.75;;;16.02;94.51
58761;BME280;44529;47.464;19.014;2023-05-20T05:06:52;100720.09;;;16.11;94.40
58761;BME280;44529;47.464;19.014;2023-05-20T05:09:54;100723.59;;;16.12;93.51
58761;BME280;44529;47.464;19.014;2023-05-20T05:12:57;100731.78;;;16.12;95.14
58761;BME280;44529;47.464;19.014;2023-05-20T05:16:01;100731.66;;;16.08;96.49
58761;BME280;44529;47.464;19.014;2023-05-20T05:19:04;100731.56;;;16.05;98.34
58761;BME280;44529;47.464;19.014;2023-05-20T05:22:08;100732.75;;;15.95;99.07
58761;BME280;44529;47.464;19.014;2023-05-20T05:25:11;100734.09;;;15.89;100.00
58761;BME280;44529;47.464;19.014;2023-05-20T05:28:14;100730.72;;;15.92;100.00
58761;BME280;44529;47.464;19.014;2023-05-20T05:31:16;100735.37;;;15.91;100.00
58761;BME280;44529;47.464;19.014;2023-05-20T05:34:18;100731.50;;;15.92;100.00
58761;BME280;44529;47.464;19.014;2023-05-20T05:37:21;100734.69;;;15.94;99.70
58761;BME280;44529;47.464;19.014;2023-05-20T05:40:23;100731.06;;;16.03;97.11
58761;BME280;44529;47.464;19.014;2023-05-20T05:43:27;100730.66;;;16.13;97.33
58761;BME280;44529;47.464;19.014;2023-05-20T05:46:31;100731.69;;;16.20;93.65
58761;BME280;44529;47.464;19.014;2023-05-20T05:49:34;100736.81;;;16.22;94.28
58761;BME280;44529;47.464;19.014;2023-05-20T05:52:36;100743.88;;;16.23;94.40
58761;BME280;44529;47.464;19.014;2023-05-20T05:55:40;100747.50;;;16.27;96.09
58761;BME280;44529;47.464;19.014;2023-05-20T05:58:42;100747.16;;;16.29;95.88
58761;BME280;44529;47.464;19.014;2023-05-20T06:01:45;100742.84;;;16.28;96.57
58761;BME280;44529;47.464;19.014;2023-05-20T06:04:48;100742.84;;;16.28;97.88
58761;BME280;44529;47.464;19.014;2023-05-20T06:07:51;100744.78;;;16.27;95.85
58761;BME280;44529;47.464;19.014;2023-05-20T06:10:53;100738.97;;;16.29;97.01
58761;BME280;44529;47.464;19.014;2023-05-20T06:13:56;100745.37;;;16.33;97.20
58761;BME280;44529;47.464;19.014;2023-05-20T06:16:59;100740.25;;;16.31;97.25
58761;BME280;44529;47.464;19.014;2023-05-20T06:20:01;100747.09;;;16.37;97.82
58761;BME280;44529;47.464;19.014;2023-05-20T06:23:04;100735.72;;;16.47;94.87
58761;BME280;44529;47.464;19.014;2023-05-20T06:26:07;100733.00;;;16.47;95.99
58761;BME280;44529;47.464;19.014;2023-05-20T06:29:10;100734.38;;;16.53;94.69
58761;BME280;44529;47.464;19.014;2023-05-20T06:32:13;100730.06;;;16.65;90.70
58761;BME280;44529;47.464;19.014;2023-05-20T06:35:16;100731.03;;;16.81;86.78
58761;BME280;44529;47.464;19.014;2023-05-20T06:38:18;100726.91;;;16.87;86.73
58761;BME280;44529;47.464;19.014;2023-05-20T06:41:21;100727.16;;;16.94;88.41
58761;BME280;44529;47.464;19.014;2023-05-20T06:44:24;100730.09;;;17.01;87.28
58761;BME280;44529;47.464;19.014;2023-05-20T06:47:27;100730.19;;;17.05;88.44
58761;BME280;44529;47.464;19.014;2023-05-20T06:50:30;100732.25;;;17.08;88.00
58761;BME280;44529;47.464;19.014;2023-05-20T06:53:33;100728.94;;;17.15;87.96
58761;BME280;44529;47.464;19.014;2023-05-20T06:56:35;100725.72;;;17.25;86.56
58761;BME280;44529;47.464;19.014;2023-05-20T06:59:37;100729.16;;;17.34;86.81
58761;BME280;44529;47.464;19.014;2023-05-20T07:02:41;100718.06;;;17.43;85.95
58761;BME280;44529;47.464;19.014;2023-05-20T07:05:45;100707.87;;;17.55;84.65
58761;BME280;44529;47.464;19.014;2023-05-20T07:08:47;100715.84;;;17.73;83.87
58761;BME280;44529;47.464;19.014;2023-05-20T07:11:50;100713.25;;;17.92;81.25
58761;BME280;44529;47.464;19.014;2023-05-20T07:14:52;100713.47;;;18.15;82.11
58761;BME280;44529;47.464;19.014;2023-05-20T07:17:55;100713.75;;;18.41;80.24
58761;BME280;44529;47.464;19.014;2023-05-20T07:20:58;100707.84;;;18.71;78.21
58761;BME280;44529;47.464;19.014;2023-05-20T07:24:02;100704.72;;;19.04;74.21
58761;BME280;44529;47.464;19.014;2023-05-20T07:27:05;100698.03;;;19.21;76.34
58761;BME280;44529;47.464;19.014;2023-05-20T07:30:07;100699.41;;;19.50;74.81
58761;BME280;44529;47.464;19.014;2023-05-20T07:33:11;100691.66;;;19.71;75.26
58761;BME280;44529;47.464;19.014;2023-05-20T07:36:14;100701.19;;;19.97;73.23
58761;BME280;44529;47.464;19.014;2023-05-20T07:39:17;100695.78;;;20.23;72.86
58761;BME280;44529;47.464;19.014;2023-05-20T07:42:19;100701.75;;;20.52;71.60
58761;BME280;44529;47.464;19.014;2023-05-20T07:45:25;100699.31;;;20.70;69.90
58761;BME280;44529;47.464;19.014;2023-05-20T07:48:28;100704.31;;;20.91;66.86
58761;BME280;44529;47.464;19.014;2023-05-20T07:51:30;100706.59;;;21.12;66.58
58761;BME280;44529;47.464;19.014;2023-05-20T07:54:33;100711.53;;;21.25;64.84
58761;BME280;44529;47.464;19.014;2023-05-20T07:57:37;100709.06;;;21.47;64.14
58761;BME280;44529;47.464;19.014;2023-05-20T08:00:40;100708.59;;;21.75;63.75
58761;BME280;44529;47.464;19.014;2023-05-20T08:03:42;100691.97;;;21.98;62.94
58761;BME280;44529;47.464;19.014;2023-05-20T08:06:45;100690.66;;;22.25;62.12
58761;BME280;44529;47.464;19.014;2023-05-20T08:09:48;100689.59;;;22.40;60.92
58761;BME280;44529;47.464;19.014;2023-05-20T08:12:51;100687.41;;;22.57;59.94
58761;BME280;44529;47.464;19.014;2023-05-20T08:15:54;100687.97;;;22.80;58.52
58761;BME280;44529;47.464;19.014;2023-05-20T08:18:57;100697.25;;;23.13;57.26
58761;BME280;44529;47.464;19.014;2023-05-20T08:22:00;100691.81;;;23.27;56.65
58761;BME280;44529;47.464;19.014;2023-05-20T08:25:06;100688.75;;;23.46;55.85
58761;BME280;44529;47.464;19.014;2023-05-20T08:28:09;100683.34;;;23.71;57.21
58761;BME280;44529;47.464;19.014;2023-05-20T08:31:12;100677.06;;;23.89;56.93
58761;BME280;44529;47.464;19.014;2023-05-20T08:34:15;100682.25;;;24.33;55.23
58761;BME280;44529;47.464;19.014;2023-05-20T08:37:17;100672.41;;;24.61;54.34
58761;BME280;44529;47.464;19.014;2023-05-20T08:40:20;100671.94;;;24.91;52.81
58761;BME280;44529;47.464;19.014;2023-05-20T08:43:23;100675.50;;;24.91;53.08
58761;BME280;44529;47.464;19.014;2023-05-20T08:46:26;100667.56;;;25.15;52.41
58761;BME280;44529;47.464;19.014;2023-05-20T08:49:30;100664.25;;;25.48;51.29
58761;BME280;44529;47.464;19.014;2023-05-20T08:52:33;100665.75;;;25.71;51.07
58761;BME280;44529;47.464;19.014;2023-05-20T08:55:41;100661.41;;;25.66;49.46
58761;BME280;44529;47.464;19.014;2023-05-20T08:58:43;100661.75;;;25.79;48.57
58761;BME280;44529;47.464;19.014;2023-05-20T09:01:47;100657.63;;;26.08;47.72
58761;BME280;44529;47.464;19.014;2023-05-20T09:04:50;100661.59;;;26.04;48.49
58761;BME280;44529;47.464;19.014;2023-05-20T09:08:03;100657.87;;;26.25;47.49
58761;BME280;44529;47.464;19.014;2023-05-20T09:11:09;100651.91;;;26.30;48.95
58761;BME280;44529;47.464;19.014;2023-05-20T09:14:11;100650.44;;;26.59;47.37
58761;BME280;44529;47.464;19.014;2023-05-20T09:17:13;100648.88;;;26.58;49.15
58761;BME280;44529;47.464;19.014;2023-05-20T09:20:16;100648.88;;;26.96;46.94
58761;BME280;44529;47.464;19.014;2023-05-20T09:23:19;100655.47;;;26.75;47.15
58761;BME280;44529;47.464;19.014;2023-05-20T09:26:27;100647.31;;;26.57;47.66
58761;BME280;44529;47.464;19.014;2023-05-20T09:29:32;100640.41;;;26.72;48.18
58761;BME280;44529;47.464;19.014;2023-05-20T09:32:34;100644.37;;;26.75;47.33
58761;BME280;44529;47.464;19.014;2023-05-20T09:35:37;100638.62;;;26.93;47.26
58761;BME280;44529;47.464;19.014;2023-05-20T09:38:39;100626.00;;;26.85;47.41
58761;BME280;44529;47.464;19.014;2023-05-20T09:41:56;100627.63;;;26.86;45.72
58761;BME280;44529;47.464;19.014;2023-05-20T09:45:06;100628.69;;;26.92;45.73
58761;BME280;44529;47.464;19.014;2023-05-20T09:48:11;100614.44;;;26.93;46.39
58761;BME280;44529;47.464;19.014;2023-05-20T09:51:15;100608.31;;;27.09;45.62
58761;BME280;44529;47.464;19.014;2023-05-20T09:54:18;100601.19;;;27.05;44.95
58761;BME280;44529;47.464;19.014;2023-05-20T09:57:20;100599.44;;;27.21;46.95
58761;BME280;44529;47.464;19.014;2023-05-20T10:00:23;100593.88;;;27.21;45.12
58761;BME280;44529;47.464;19.014;2023-05-20T10:03:26;100592.06;;;27.08;45.15
58761;BME280;44529;47.464;19.014;2023-05-20T10:19:43;100577.66;;;27.47;44.67
58761;BME280;44529;47.464;19.014;2023-05-20T10:22:54;100576.91;;;27.43;42.68
58761;BME280;44529;47.464;19.014;2023-05-20T10:26:05;100576.69;;;27.30;44.43
58761;BME280;44529;47.464;19.014;2023-05-20T10:29:17;100569.19;;;26.96;43.67
58761;BME280;44529;47.464;19.014;2023-05-20T10:35:26;100560.47;;;27.29;43.63
58761;BME280;44529;47.464;19.014;2023-05-20T10:38:28;100558.84;;;27.31;42.87
58761;BME280;44529;47.464;19.014;2023-05-20T10:41:31;100555.34;;;27.27;39.70
58761;BME280;44529;47.464;19.014;2023-05-20T10:44:46;100550.34;;;27.15;40.90
58761;BME280;44529;47.464;19.014;2023-05-20T10:47:56;100551.22;;;27.08;42.17
58761;BME280;44529;47.464;19.014;2023-05-20T10:51:00;100550.06;;;27.06;40.23
58761;BME280;44529;47.464;19.014;2023-05-20T10:54:08;100546.88;;;27.07;43.43
58761;BME280;44529;47.464;19.014;2023-05-20T10:57:11;100535.31;;;27.12;42.03
58761;BME280;44529;47.464;19.014;2023-05-20T11:00:14;100538.00;;;26.85;41.64
58761;BME280;44529;47.464;19.014;2023-05-20T11:03:17;100535.44;;;26.98;42.23
58761;BME280;44529;47.464;19.014;2023-05-20T11:06:27;100532.97;;;26.77;41.18
58761;BME280;44529;47.464;19.014;2023-05-20T11:09:29;100537.22;;;26.85;42.69
58761;BME280;44529;47.464;19.014;2023-05-20T11:12:33;100524.31;;;27.02;42.64
58761;BME280;44529;47.464;19.014;2023-05-20T11:15:35;100529.53;;;26.96;42.05
58761;BME280;44529;47.464;19.014;2023-05-20T11:18:38;100520.31;;;27.06;41.60
58761;BME280;44529;47.464;19.014;2023-05-20T11:21:44;100514.84;;;26.99;41.93
58761;BME280;44529;47.464;19.014;2023-05-20T11:24:47;100515.72;;;26.92;41.06
58761;BME280;44529;47.464;19.014;2023-05-20T11:27:49;100518.97;;;26.87;41.86
58761;BME280;44529;47.464;19.014;2023-05-20T11:30:54;100517.38;;;26.86;41.79
58761;BME280;44529;47.464;19.014;2023-05-20T11:33:59;100512.47;;;26.97;41.74
58761;BME280;44529;47.464;19.014;2023-05-20T11:37:06;100509.94;;;26.80;42.95
58761;BME280;44529;47.464;19.014;2023-05-20T11:40:10;100504.00;;;26.78;44.19
58761;BME280;44529;47.464;19.014;2023-05-20T11:43:14;100503.66;;;26.72;40.60
58761;BME280;44529;47.464;19.014;2023-05-20T11:46:19;100505.37;;;26.62;39.86
58761;BME280;44529;47.464;19.014;2023-05-20T11:49:22;100504.87;;;26.71;39.97
58761;BME280;44529;47.464;19.014;2023-05-20T11:52:27;100504.63;;;26.58;39.31
58761;BME280;44529;47.464;19.014;2023-05-20T11:55:31;100509.13;;;26.49;40.75
58761;BME280;44529;47.464;19.014;2023-05-20T11:58:34;100505.37;;;26.62;41.41
58761;BME280;44529;47.464;19.014;2023-05-20T12:01:38;100492.66;;;26.65;41.89
58761;BME280;44529;47.464;19.014;2023-05-20T12:04:44;100491.53;;;26.62;40.74
58761;BME280;44529;47.464;19.014;2023-05-20T12:07:47;100491.06;;;26.67;40.57
58761;BME280;44529;47.464;19.014;2023-05-20T12:10:49;100487.00;;;26.76;40.71
58761;BME280;44529;47.464;19.014;2023-05-20T12:13:52;100491.56;;;26.59;40.52
58761;BME280;44529;47.464;19.014;2023-05-20T12:16:54;100493.34;;;26.72;40.96
58761;BME280;44529;47.464;19.014;2023-05-20T12:19:56;100488.78;;;26.59;39.73
58761;BME280;44529;47.464;19.014;2023-05-20T12:22:59;100494.66;;;26.64;40.08
58761;BME280;44529;47.464;19.014;2023-05-20T12:26:02;100495.19;;;26.52;40.63
58761;BME280;44529;47.464;19.014;2023-05-20T12:29:04;100490.94;;;26.44;41.16
58761;BME280;44529;47.464;19.014;2023-05-20T12:32:07;100490.84;;;26.51;41.09
58761;BME280;44529;47.464;19.014;2023-05-20T12:35:10;100495.88;;;26.60;42.53
58761;BME280;44529;47.464;19.014;2023-05-20T12:38:13;100480.53;;;26.52;40.42
58761;BME280;44529;47.464;19.014;2023-05-20T12:41:15;100477.44;;;26.46;40.52
58761;BME280;44529;47.464;19.014;2023-05-20T12:44:17;100477.31;;;26.57;41.46
58761;BME280;44529;47.464;19.014;2023-05-20T12:47:20;100473.75;;;26.56;42.01
58761;BME280;44529;47.464;19.014;2023-05-20T12:50:23;100470.28;;;26.49;41.66
58761;BME280;44529;47.464;19.014;2023-05-20T12:53:26;100476.63;;;26.49;42.33
58761;BME280;44529;47.464;19.014;2023-05-20T12:56:28;100460.13;;;26.35;41.21
58761;BME280;44529;47.464;19.014;2023-05-20T12:59:31;100469.19;;;26.01;43.12
58761;BME280;44529;47.464;19.014;2023-05-20T13:02:34;100470.47;;;25.93;45.52
58761;BME280;44529;47.464;19.014;2023-05-20T13:05:39;100462.06;;;26.00;42.97
58761;BME280;44529;47.464;19.014;2023-05-20T13:08:41;100460.44;;;26.06;42.95
58761;BME280;44529;47.464;19.014;2023-05-20T13:11:44;100455.47;;;26.25;43.80
58761;BME280;44529;47.464;19.014;2023-05-20T13:14:46;100450.81;;;26.18;42.59
58761;BME280;44529;47.464;19.014;2023-05-20T13:17:49;100442.03;;;26.23;43.59
58761;BME280;44529;47.464;19.014;2023-05-20T13:20:51;100443.56;;;26.28;43.50
58761;BME280;44529;47.464;19.014;2023-05-20T13:23:53;100445.50;;;26.31;42.96
58761;BME280;44529;47.464;19.014;2023-05-20T13:26:56;100443.50;;;26.35;43.54
58761;BME280;44529;47.464;19.014;2023-05-20T13:29:58;100432.00;;;26.33;44.76
58761;BME280;44529;47.464;19.014;2023-05-20T13:33:02;100420.47;;;26.38;44.15
58761;BME280;44529;47.464;19.014;2023-05-20T13:36:05;100427.31;;;26.30;44.78
58761;BME280;44529;47.464;19.014;2023-05-20T13:39:08;100419.03;;;26.26;45.60
58761;BME280;44529;47.464;19.014;2023-05-20T13:42:10;100421.69;;;26.33;44.54
58761;BME280;44529;47.464;19.014;2023-05-20T13:45:12;100421.34;;;26.31;44.46
58761;BME280;44529;47.464;19.014;2023-05-20T13:48:15;100424.97;;;26.25;45.76
58761;BME280;44529;47.464;19.014;2023-05-20T13:51:17;100426.69;;;26.15;45.39
58761;BME280;44529;47.464;19.014;2023-05-20T13:54:20;100417.91;;;26.20;45.90
58761;BME280;44529;47.464;19.014;2023-05-20T13:57:22;100418.12;;;26.02;45.24
58761;BME280;44529;47.464;19.014;2023-05-20T14:00:25;100424.63;;;25.85;47.57
58761;BME280;44529;47.464;19.014;2023-05-20T14:03:28;100416.09;;;25.65;46.57
58761;BME280;44529;47.464;19.014;2023-05-20T14:06:30;100413.41;;;25.54;45.85
58761;BME280;44529;47.464;19.014;2023-05-20T14:09:34;100407.81;;;25.61;45.02
58761;BME280;44529;47.464;19.014;2023-05-20T14:12:36;100408.53;;;25.73;44.92
58761;BME280;44529;47.464;19.014;2023-05-20T14:15:38;100410.09;;;25.74;44.69
58761;BME280;44529;47.464;19.014;2023-05-20T14:18:41;100399.00;;;25.74;44.79
58761;BME280;44529;47.464;19.014;2023-05-20T14:21:43;100398.22;;;25.73;45.69
58761;BME280;44529;47.464;19.014;2023-05-20T14:24:46;100395.47;;;25.73;44.68
58761;BME280;44529;47.464;19.014;2023-05-20T14:27:49;100388.28;;;25.76;45.02
58761;BME280;44529;47.464;19.014;2023-05-20T14:30:51;100393.06;;;25.75;43.22
58761;BME280;44529;47.464;19.014;2023-05-20T14:33:54;100391.91;;;25.73;44.27
58761;BME280;44529;47.464;19.014;2023-05-20T14:36:57;100386.94;;;25.50;45.60
58761;BME280;44529;47.464;19.014;2023-05-20T14:39:59;100386.13;;;25.53;45.20
58761;BME280;44529;47.464;19.014;2023-05-20T14:43:02;100383.44;;;25.42;46.48
58761;BME280;44529;47.464;19.014;2023-05-20T14:46:05;100375.56;;;25.41;46.80
58761;BME280;44529;47.464;19.014;2023-05-20T14:49:07;100375.56;;;25.41;45.19
58761;BME280;44529;47.464;19.014;2023-05-20T14:52:10;100379.41;;;25.50;43.48
58761;BME280;44529;47.464;19.014;2023-05-20T14:55:12;100374.28;;;25.52;42.81
58761;BME280;44529;47.464;19.014;2023-05-20T14:58:15;100375.81;;;25.57;44.99
58761;BME280;44529;47.464;19.014;2023-05-20T15:01:17;100371.50;;;25.52;42.19
58761;BME280;44529;47.464;19.014;2023-05-20T15:04:20;100377.06;;;25.49;43.60
58761;BME280;44529;47.464;19.014;2023-05-20T15:07:22;100381.03;;;25.48;41.13
58761;BME280;44529;47.464;19.014;2023-05-20T15:10:24;100380.97;;;25.55;42.43
58761;BME280;44529;47.464;19.014;2023-05-20T15:13:27;100372.31;;;25.49;41.66
58761;BME280;44529;47.464;19.014;2023-05-20T15:16:29;100372.34;;;25.46;43.93
58761;BME280;44529;47.464;19.014;2023-05-20T15:19:31;100368.44;;;25.39;43.90
58761;BME280;44529;47.464;19.014;2023-05-20T15:22:34;100367.75;;;25.32;42.26
58761;BME280;44529;47.464;19.014;2023-05-20T15:25:37;100360.72;;;25.20;44.25
58761;BME280;44529;47.464;19.014;2023-05-20T15:28:39;100346.47;;;25.22;44.56
58761;BME280;44529;47.464;19.014;2023-05-20T15:31:42;100355.06;;;25.34;44.95
58761;BME280;44529;47.464;19.014;2023-05-20T15:34:44;100346.75;;;25.76;44.65
58761;BME280;44529;47.464;19.014;2023-05-20T15:37:47;100348.19;;;25.87;41.80
58761;BME280;44529;47.464;19.014;2023-05-20T15:40:49;100345.97;;;25.72;42.49
58761;BME280;44529;47.464;19.014;2023-05-20T15:43:52;100342.94;;;25.59;42.89
58761;BME280;44529;47.464;19.014;2023-05-20T15:46:54;100346.56;;;25.52;43.19
58761;BME280;44529;47.464;19.014;2023-05-20T15:49:57;100341.91;;;25.46;44.93
58761;BME280;44529;47.464;19.014;2023-05-20T15:52:59;100327.72;;;25.40;46.38
58761;BME280;44529;47.464;19.014;2023-05-20T15:56:01;100337.34;;;25.25;47.17
58761;BME280;44529;47.464;19.014;2023-05-20T15:59:04;100333.13;;;25.09;48.08